Terminal Aerodrome Forecast
Issued by NWS St Louis, MO

Home | Current Version | Previous Version | Text Only | Print | Product List | Glossary On
Versions: 1 2 3 4 5 6 7 8 9 10 11 12 13 14 15 16 17 18 19 20 21
000
FTUS43 KLSX 170700 AAB
TAFCOU
TAF AMD
KCOU 170739Z 1708/1806 30005KT 3SM BR OVC004
     FM171600 34006KT P6SM OVC020
     FM180100 34005KT P6SM BKN035=

USA.gov is the U.S. government's official web portal to all federal, state and local government web resources and services.